KCEY/CEY METAR and TAF weather

Enter ICAO airport designator
Station Type Date Time Source
KCEY METAR 2022/11/26 09:35 UTC NOAA

KCEY 260935Z AUTO 05004KT M1/4SM FZFG OVC001 M00/M00 A3018 RMK A01


Station Type Date Time Source
KCEY Decoded METAR 2022/11/26 09:35 UTC NOAA

Station name not available
Nov 26, 2022 - 04:35 AM EST / 2022.11.26 0935 UTC
Wind: from the NE (050 degrees) at 5 MPH (4 KT):0
Visibility: less than 1/4 mile(s):1
Sky conditions: overcast
Weather: freezing fog
Temperature: 32 F (0 C)
Windchill: 26 F (-3 C):1
Dew Point: 32 F (0 C)
Relative Humidity: 100%
Pressure (altimeter): 30.18 in. Hg (1022 hPa)
ob: KCEY 260935Z AUTO 05004KT M1/4SM FZFG OVC001 M00/M00 A3018 RMK A01
cycle: 9

Station Type Date Time Source
KCEY TAF UTC NOAA

Error!

Example: see airport list